createdAt,value
2023-04-17T00:04:11.487Z,30.10
2023-04-17T00:09:15.926Z,31.73
2023-04-17T00:14:17.953Z,35.13
2023-04-17T00:19:19.841Z,33.23
2023-04-17T00:24:23.873Z,35.53
2023-04-17T00:29:27.913Z,36.90
2023-04-17T00:34:34.621Z,37.27
2023-04-17T00:39:36.282Z,38.50
2023-04-17T00:44:38.200Z,37.20
2023-04-17T00:49:42.527Z,39.37
2023-04-17T00:54:44.358Z,38.73
2023-04-17T00:59:46.808Z,38.57
2023-04-17T01:04:48.456Z,42.67
2023-04-17T01:09:52.566Z,41.33
2023-04-17T01:14:55.834Z,39.80
2023-04-17T01:19:59.968Z,41.13
2023-04-17T01:25:08.322Z,39.17
2023-04-17T01:30:14.622Z,41.40
2023-04-17T01:35:27.897Z,42.07
2023-04-17T01:40:29.685Z,38.90
2023-04-17T01:45:34.177Z,39.97
2023-04-17T01:50:35.890Z,40.77
2023-04-17T01:55:39.771Z,51.57
2023-04-17T02:00:49.223Z,43.37
2023-04-17T02:05:52.755Z,44.33
2023-04-17T02:10:59.017Z,48.90
2023-04-17T02:16:06.248Z,45.40
2023-04-17T02:21:09.893Z,48.23
2023-04-17T02:26:13.864Z,44.63
2023-04-17T02:31:24.059Z,45.83
2023-04-17T02:36:27.288Z,43.10
2023-04-17T02:41:33.593Z,43.90
2023-04-17T02:46:35.895Z,43.33
2023-04-17T02:51:40.671Z,41.23
2023-04-17T02:56:42.442Z,42.17
2023-04-17T03:01:45.842Z,39.30
2023-04-17T03:06:49.411Z,38.83
2023-04-17T03:11:53.798Z,39.90
2023-04-17T03:16:55.725Z,38.70
2023-04-17T03:21:57.698Z,39.97
2023-04-17T03:27:04.855Z,40.20
2023-04-17T03:32:15.921Z,41.23
2023-04-17T03:37:17.989Z,38.37
2023-04-17T03:42:19.944Z,38.30
2023-04-17T03:47:27.042Z,38.67
2023-04-17T03:52:31.339Z,43.23
2023-04-17T03:57:34.122Z,43.15
2023-04-17T04:02:39.086Z,43.10
2023-04-17T04:07:41.117Z,41.13
2023-04-17T04:12:48.041Z,50.30
2023-04-17T04:17:53.113Z,50.47
2023-04-17T04:22:57.409Z,46.20
2023-04-17T04:28:01.642Z,45.63
2023-04-17T04:33:06.253Z,43.87
2023-04-17T04:38:14.138Z,44.53
2023-04-17T04:43:22.556Z,44.53
2023-04-17T04:48:28.945Z,44.67
2023-04-17T04:53:30.912Z,46.23
2023-04-17T04:58:35.072Z,46.47
2023-04-17T05:03:41.034Z,45.73
2023-04-17T05:08:45.241Z,46.80
2023-04-17T05:13:49.570Z,46.83
2023-04-17T05:18:59.355Z,46.97
2023-04-17T05:24:29.712Z,47.67
2023-04-17T05:29:33.940Z,41.60
2023-04-17T05:34:36.042Z,41.43
2023-04-17T05:39:39.144Z,41.37
2023-04-17T05:44:42.979Z,41.80
2023-04-17T05:49:44.780Z,42.27
2023-04-17T05:54:46.648Z,39.73
2023-04-17T05:59:49.304Z,39.80
2023-04-17T06:04:54.017Z,39.37
2023-04-17T06:10:01.532Z,39.13
2023-04-17T06:15:09.380Z,38.57
2023-04-17T06:20:14.728Z,36.73
2023-04-17T06:25:19.099Z,37.73
2023-04-17T06:30:23.141Z,40.08
2023-04-17T06:35:28.269Z,35.03
2023-04-17T06:40:41.889Z,34.50
2023-04-17T06:45:43.910Z,34.30
2023-04-17T06:50:48.109Z,32.37
2023-04-17T06:55:52.785Z,31.07
2023-04-17T07:00:59.278Z,30.83
2023-04-17T07:06:03.632Z,30.67
2023-04-17T07:11:07.737Z,28.80
2023-04-17T07:16:12.598Z,29.77
2023-04-17T07:21:14.397Z,28.40
2023-04-17T07:26:16.428Z,28.10
2023-04-17T07:31:22.187Z,27.33
2023-04-17T07:36:24.598Z,26.05
2023-04-17T07:41:28.671Z,24.33
2023-04-17T07:46:30.749Z,23.33
2023-04-17T07:51:32.915Z,23.67
2023-04-17T07:56:37.674Z,21.90
2023-04-17T08:01:41.950Z,22.27
2023-04-17T08:06:43.716Z,22.85
2023-04-17T08:11:56.120Z,21.92
2023-04-17T08:17:02.618Z,21.95
2023-04-17T08:22:06.202Z,21.67
2023-04-17T08:27:12.757Z,22.65
2023-04-17T08:32:15.400Z,21.60
2023-04-17T08:37:17.496Z,18.85
2023-04-17T08:42:21.370Z,18.70
2023-04-17T08:47:23.119Z,17.95
2023-04-17T08:52:25.009Z,15.98
2023-04-17T08:57:28.957Z,15.70
2023-04-17T09:02:33.165Z,15.32
2023-04-17T09:07:34.986Z,13.85
2023-04-17T09:12:41.907Z,14.48
2023-04-17T09:17:48.531Z,15.07
2023-04-17T09:22:59.547Z,13.90
2023-04-17T09:28:14.034Z,14.10
2023-04-17T09:33:18.055Z,14.65
2023-04-17T09:38:40.995Z,14.40
2023-04-17T09:43:43.416Z,14.50
2023-04-17T09:48:46.632Z,12.55
2023-04-17T09:53:49.842Z,13.63
2023-04-17T09:58:54.644Z,12.70
2023-04-17T10:03:57.020Z,12.90
2023-04-17T10:09:01.515Z,13.80
2023-04-17T10:14:11.823Z,12.57
2023-04-17T10:19:33.653Z,12.77
2023-04-17T10:24:40.072Z,12.45
2023-04-17T10:30:00.796Z,12.30
2023-04-17T10:35:17.983Z,13.07
2023-04-17T10:40:22.866Z,12.98
2023-04-17T10:45:24.772Z,11.82
2023-04-17T10:50:32.115Z,11.05
2023-04-17T10:55:34.286Z,11.30
2023-04-17T11:00:38.216Z,10.07
2023-04-17T11:05:48.046Z,9.32
2023-04-17T11:10:53.881Z,9.15
2023-04-17T11:15:58.668Z,9.27
2023-04-17T11:21:04.869Z,9.68
2023-04-17T11:26:15.578Z,10.98
2023-04-17T11:31:18.994Z,11.00
2023-04-17T11:36:22.119Z,10.88
2023-04-17T11:41:36.823Z,10.88
2023-04-17T11:46:43.104Z,9.88
2023-04-17T11:51:49.987Z,10.10
2023-04-17T11:57:02.255Z,9.98
2023-04-17T12:02:08.453Z,10.25
2023-04-17T12:07:24.286Z,8.70
2023-04-17T12:12:25.969Z,9.07
2023-04-17T12:17:30.656Z,9.63
2023-04-17T12:22:33.342Z,9.85
2023-04-17T12:27:37.599Z,10.65
2023-04-17T12:32:39.831Z,9.90
2023-04-17T12:37:44.274Z,9.50
2023-04-17T12:42:49.506Z,9.65
2023-04-17T12:47:58.697Z,9.25
2023-04-17T12:53:02.889Z,10.52
2023-04-17T12:58:14.203Z,10.15
2023-04-17T13:03:16.186Z,8.63
2023-04-17T13:08:17.949Z,9.40
2023-04-17T13:13:22.412Z,9.30
2023-04-17T13:18:26.861Z,9.95
2023-04-17T13:23:29.386Z,7.78
2023-04-17T13:28:33.810Z,8.63
2023-04-17T13:33:40.390Z,8.55
2023-04-17T13:38:42.072Z,8.82
2023-04-17T13:43:48.421Z,8.18
2023-04-17T13:48:50.084Z,8.05
2023-04-17T13:53:54.016Z,8.60
2023-04-17T13:58:58.595Z,8.38
2023-04-17T14:04:00.975Z,7.63
2023-04-17T14:09:03.404Z,7.47
2023-04-17T14:14:05.704Z,7.63
2023-04-17T14:19:14.546Z,7.97
2023-04-17T14:24:19.485Z,7.10
2023-04-17T14:29:21.402Z,6.97
2023-04-17T14:34:25.418Z,7.57
2023-04-17T14:39:28.392Z,8.10
2023-04-17T14:44:34.214Z,8.10
2023-04-17T14:49:38.119Z,8.68
2023-04-17T14:54:39.774Z,8.60
2023-04-17T14:59:44.433Z,8.07
2023-04-17T15:04:47.631Z,8.00
2023-04-17T15:09:49.335Z,7.95
2023-04-17T15:14:53.410Z,8.43
2023-04-17T15:19:58.637Z,9.13
2023-04-17T15:25:02.996Z,9.35
2023-04-17T15:30:08.925Z,9.38
2023-04-17T15:35:13.064Z,9.63
2023-04-17T15:40:16.400Z,9.23
2023-04-17T15:45:20.508Z,8.02
2023-04-17T15:50:27.355Z,8.65
2023-04-17T15:55:33.148Z,8.80
2023-04-17T16:00:37.184Z,7.30
2023-04-17T16:05:38.838Z,6.60
2023-04-17T16:10:42.632Z,5.70
2023-04-17T16:15:45.147Z,5.57
2023-04-17T16:20:47.178Z,5.75
2023-04-17T16:25:56.888Z,5.35
2023-04-17T16:30:58.795Z,5.93
2023-04-17T16:36:03.614Z,5.47
2023-04-17T16:41:10.822Z,6.07
2023-04-17T16:46:23.957Z,6.18
2023-04-17T16:51:33.365Z,6.30
2023-04-17T16:56:38.228Z,5.97
2023-04-17T17:01:42.711Z,6.05
2023-04-17T17:06:46.939Z,6.03
2023-04-17T17:11:53.394Z,6.55
2023-04-17T17:16:58.361Z,6.53
2023-04-17T17:22:02.694Z,6.85
2023-04-17T17:27:04.687Z,6.60
2023-04-17T17:32:09.080Z,7.07
2023-04-17T17:37:10.976Z,6.45
2023-04-17T17:42:12.689Z,6.80
2023-04-17T17:47:16.744Z,6.65
2023-04-17T17:52:18.418Z,7.50
2023-04-17T17:57:22.170Z,7.38
2023-04-17T18:02:26.027Z,7.88
2023-04-17T18:07:27.886Z,8.30
2023-04-17T18:12:34.240Z,7.05
2023-04-17T18:17:41.214Z,7.38
2023-04-17T18:22:46.235Z,7.40
2023-04-17T18:27:48.214Z,7.47
2023-04-17T18:32:50.051Z,7.47
2023-04-17T18:37:53.064Z,7.20
2023-04-17T18:42:56.391Z,7.18
2023-04-17T18:48:00.546Z,7.22
2023-04-17T18:53:04.568Z,7.53
2023-04-17T18:58:06.411Z,7.22
2023-04-17T19:03:10.876Z,7.88
2023-04-17T19:08:13.924Z,7.07
2023-04-17T19:13:17.903Z,7.53
2023-04-17T19:18:19.839Z,7.10
2023-04-17T19:23:21.674Z,7.50
2023-04-17T19:28:24.188Z,8.25
2023-04-17T19:33:28.555Z,8.02
2023-04-17T19:38:31.430Z,8.63
2023-04-17T19:43:33.176Z,7.93
2023-04-17T19:48:41.528Z,8.35
2023-04-17T19:53:46.596Z,8.40
2023-04-17T19:58:48.431Z,8.55
2023-04-17T20:03:52.552Z,8.60
2023-04-17T20:08:59.278Z,8.03
2023-04-17T20:14:04.566Z,8.35
2023-04-17T20:19:06.285Z,7.40
2023-04-17T20:24:10.687Z,7.43
2023-04-17T20:29:15.585Z,8.10
2023-04-17T20:34:19.731Z,8.03
2023-04-17T20:39:21.464Z,8.75
2023-04-17T20:44:25.849Z,8.10
2023-04-17T20:49:31.163Z,7.77
2023-04-17T20:54:40.001Z,8.60
2023-04-17T20:59:44.008Z,8.97
2023-04-17T21:04:45.771Z,8.63
2023-04-17T21:09:49.711Z,8.90
2023-04-17T21:14:54.095Z,9.53
2023-04-17T21:19:56.251Z,8.67
2023-04-17T21:25:00.176Z,9.63
2023-04-17T21:30:04.851Z,10.77
2023-04-17T21:35:13.573Z,11.27
2023-04-17T21:40:17.487Z,8.83
2023-04-17T21:45:19.844Z,7.57
2023-04-17T21:50:23.928Z,8.00
2023-04-17T21:55:25.667Z,7.20
2023-04-17T22:00:29.746Z,7.80
2023-04-17T22:05:31.403Z,7.40
2023-04-17T22:10:37.881Z,6.63
2023-04-17T22:15:42.553Z,6.63
2023-04-17T22:20:46.578Z,7.10
2023-04-17T22:25:48.261Z,7.27
2023-04-17T22:30:51.958Z,6.90
2023-04-17T22:35:58.241Z,6.80
2023-04-17T22:41:00.434Z,7.37
2023-04-17T22:46:04.781Z,8.00
2023-04-17T22:51:09.743Z,8.57
2023-04-17T22:56:15.849Z,8.60
2023-04-17T23:01:19.894Z,8.87
2023-04-17T23:06:25.995Z,9.53
2023-04-17T23:11:30.928Z,8.53
2023-04-17T23:16:34.734Z,8.93
2023-04-17T23:21:41.359Z,8.10
2023-04-17T23:26:47.558Z,8.23
2023-04-17T23:31:51.672Z,7.63
2023-04-17T23:36:55.895Z,7.20
2023-04-17T23:42:05.638Z,7.03
2023-04-17T23:47:11.417Z,7.10
2023-04-17T23:52:15.161Z,7.90
2023-04-17T23:57:17.458Z,7.47
